sensor_id;sensor_type;location;lat;lon;timestamp;temperature;humidity
16273;DHT22;8244;50.044;9.006;2022-11-12T00:03:05;7.10;99.90
16273;DHT22;8244;50.044;9.006;2022-11-12T00:08:07;7.10;99.90
16273;DHT22;8244;50.044;9.006;2022-11-12T00:13:10;7.10;99.90
16273;DHT22;8244;50.044;9.006;2022-11-12T00:18:11;7.00;99.90
16273;DHT22;8244;50.044;9.006;2022-11-12T00:23:13;7.00;99.90
16273;DHT22;8244;50.044;9.006;2022-11-12T00:28:16;6.90;99.90
16273;DHT22;8244;50.044;9.006;2022-11-12T00:33:18;6.80;99.90
16273;DHT22;8244;50.044;9.006;2022-11-12T00:38:19;6.80;99.90
16273;DHT22;8244;50.044;9.006;2022-11-12T00:43:22;6.70;99.90
16273;DHT22;8244;50.044;9.006;2022-11-12T00:48:24;6.70;99.90
16273;DHT22;8244;50.044;9.006;2022-11-12T00:53:26;6.70;99.90
16273;DHT22;8244;50.044;9.006;2022-11-12T00:58:30;6.70;99.90
16273;DHT22;8244;50.044;9.006;2022-11-12T01:03:32;6.80;99.90
16273;DHT22;8244;50.044;9.006;2022-11-12T01:08:34;6.80;99.90
16273;DHT22;8244;50.044;9.006;2022-11-12T01:13:38;6.80;99.90
16273;DHT22;8244;50.044;9.006;2022-11-12T01:18:40;6.70;99.90
16273;DHT22;8244;50.044;9.006;2022-11-12T01:23:42;6.60;99.90
16273;DHT22;8244;50.044;9.006;2022-11-12T01:28:45;6.60;99.90
16273;DHT22;8244;50.044;9.006;2022-11-12T01:33:49;6.60;99.90
16273;DHT22;8244;50.044;9.006;2022-11-12T01:38:53;6.60;99.90
16273;DHT22;8244;50.044;9.006;2022-11-12T01:44:16;6.60;99.90
16273;DHT22;8244;50.044;9.006;2022-11-12T01:49:22;6.70;99.90
16273;DHT22;8244;50.044;9.006;2022-11-12T01:54:26;6.70;99.90
16273;DHT22;8244;50.044;9.006;2022-11-12T01:59:33;6.70;99.90
16273;DHT22;8244;50.044;9.006;2022-11-12T02:04:39;6.60;99.90
16273;DHT22;8244;50.044;9.006;2022-11-12T02:09:42;6.60;99.90
16273;DHT22;8244;50.044;9.006;2022-11-12T02:14:45;6.60;99.90
16273;DHT22;8244;50.044;9.006;2022-11-12T02:19:47;6.60;99.90
16273;DHT22;8244;50.044;9.006;2022-11-12T02:24:50;6.50;99.90
16273;DHT22;8244;50.044;9.006;2022-11-12T02:29:51;6.40;99.90
16273;DHT22;8244;50.044;9.006;2022-11-12T02:34:53;6.40;99.90
16273;DHT22;8244;50.044;9.006;2022-11-12T02:39:56;6.40;99.90
16273;DHT22;8244;50.044;9.006;2022-11-12T02:44:57;6.40;99.90
16273;DHT22;8244;50.044;9.006;2022-11-12T02:49:59;6.40;99.90
16273;DHT22;8244;50.044;9.006;2022-11-12T02:55:02;6.40;99.90
16273;DHT22;8244;50.044;9.006;2022-11-12T03:00:06;6.40;99.90
16273;DHT22;8244;50.044;9.006;2022-11-12T03:05:08;6.30;99.90
16273;DHT22;8244;50.044;9.006;2022-11-12T03:10:11;6.30;99.90
16273;DHT22;8244;50.044;9.006;2022-11-12T03:15:13;6.20;99.90
16273;DHT22;8244;50.044;9.006;2022-11-12T03:20:17;6.20;99.90
16273;DHT22;8244;50.044;9.006;2022-11-12T03:25:20;6.20;99.90
16273;DHT22;8244;50.044;9.006;2022-11-12T03:30:21;6.20;99.90
16273;DHT22;8244;50.044;9.006;2022-11-12T03:35:23;6.20;99.90
16273;DHT22;8244;50.044;9.006;2022-11-12T03:40:28;6.20;99.90
16273;DHT22;8244;50.044;9.006;2022-11-12T03:45:30;6.10;99.90
16273;DHT22;8244;50.044;9.006;2022-11-12T03:50:31;6.10;99.90
16273;DHT22;8244;50.044;9.006;2022-11-12T03:55:34;6.00;99.90
16273;DHT22;8244;50.044;9.006;2022-11-12T04:00:36;5.90;99.90
16273;DHT22;8244;50.044;9.006;2022-11-12T04:05:37;5.90;99.90
16273;DHT22;8244;50.044;9.006;2022-11-12T04:11:08;5.80;99.90
16273;DHT22;8244;50.044;9.006;2022-11-12T04:16:14;5.70;99.90
16273;DHT22;8244;50.044;9.006;2022-11-12T04:21:36;5.70;99.90
16273;DHT22;8244;50.044;9.006;2022-11-12T04:26:58;5.70;99.90
16273;DHT22;8244;50.044;9.006;2022-11-12T04:32:00;5.70;99.90
16273;DHT22;8244;50.044;9.006;2022-11-12T04:37:02;5.60;99.90
16273;DHT22;8244;50.044;9.006;2022-11-12T04:42:06;5.60;99.90
16273;DHT22;8244;50.044;9.006;2022-11-12T04:47:31;5.70;99.90
16273;DHT22;8244;50.044;9.006;2022-11-12T04:52:33;5.70;99.90
16273;DHT22;8244;50.044;9.006;2022-11-12T04:57:37;5.70;99.90
16273;DHT22;8244;50.044;9.006;2022-11-12T05:02:38;5.80;99.90
16273;DHT22;8244;50.044;9.006;2022-11-12T05:07:40;5.80;99.90
16273;DHT22;8244;50.044;9.006;2022-11-12T05:12:43;5.90;99.90
16273;DHT22;8244;50.044;9.006;2022-11-12T05:17:45;5.90;99.90
16273;DHT22;8244;50.044;9.006;2022-11-12T05:22:46;5.80;99.90
16273;DHT22;8244;50.044;9.006;2022-11-12T05:27:49;5.70;99.90
16273;DHT22;8244;50.044;9.006;2022-11-12T05:32:51;5.70;99.90
16273;DHT22;8244;50.044;9.006;2022-11-12T05:37:53;5.70;99.90
16273;DHT22;8244;50.044;9.006;2022-11-12T05:42:55;5.60;99.90
16273;DHT22;8244;50.044;9.006;2022-11-12T05:47:57;5.70;99.90
16273;DHT22;8244;50.044;9.006;2022-11-12T05:52:59;5.60;99.90
16273;DHT22;8244;50.044;9.006;2022-11-12T05:58:04;5.60;99.90
16273;DHT22;8244;50.044;9.006;2022-11-12T06:03:07;5.60;99.90
16273;DHT22;8244;50.044;9.006;2022-11-12T06:08:09;5.60;99.90
16273;DHT22;8244;50.044;9.006;2022-11-12T06:13:12;5.60;99.90
16273;DHT22;8244;50.044;9.006;2022-11-12T06:18:14;5.60;99.90
16273;DHT22;8244;50.044;9.006;2022-11-12T06:23:16;5.60;99.90
16273;DHT22;8244;50.044;9.006;2022-11-12T06:28:18;5.70;99.90
16273;DHT22;8244;50.044;9.006;2022-11-12T06:33:20;5.60;99.90
16273;DHT22;8244;50.044;9.006;2022-11-12T06:38:22;5.60;99.90
16273;DHT22;8244;50.044;9.006;2022-11-12T06:43:28;5.60;99.90
16273;DHT22;8244;50.044;9.006;2022-11-12T06:48:30;5.60;99.90
16273;DHT22;8244;50.044;9.006;2022-11-12T06:53:32;5.60;99.90
16273;DHT22;8244;50.044;9.006;2022-11-12T06:58:35;5.70;99.90
16273;DHT22;8244;50.044;9.006;2022-11-12T07:03:37;5.70;99.90
16273;DHT22;8244;50.044;9.006;2022-11-12T07:08:40;5.70;99.90
16273;DHT22;8244;50.044;9.006;2022-11-12T07:13:43;5.70;99.90
16273;DHT22;8244;50.044;9.006;2022-11-12T07:18:46;5.80;99.90
16273;DHT22;8244;50.044;9.006;2022-11-12T07:23:47;5.80;99.90
16273;DHT22;8244;50.044;9.006;2022-11-12T07:28:51;5.90;99.90
16273;DHT22;8244;50.044;9.006;2022-11-12T07:33:55;5.90;99.90
16273;DHT22;8244;50.044;9.006;2022-11-12T07:38:56;5.90;99.90
16273;DHT22;8244;50.044;9.006;2022-11-12T07:43:59;6.00;99.90
16273;DHT22;8244;50.044;9.006;2022-11-12T07:49:01;6.00;99.90
16273;DHT22;8244;50.044;9.006;2022-11-12T07:54:04;6.10;99.90
16273;DHT22;8244;50.044;9.006;2022-11-12T07:59:07;6.10;99.90
16273;DHT22;8244;50.044;9.006;2022-11-12T08:04:09;6.20;99.90
16273;DHT22;8244;50.044;9.006;2022-11-12T08:09:11;6.20;99.90
16273;DHT22;8244;50.044;9.006;2022-11-12T08:14:14;6.10;99.90
16273;DHT22;8244;50.044;9.006;2022-11-12T08:19:16;6.10;99.90
16273;DHT22;8244;50.044;9.006;2022-11-12T08:24:18;6.20;99.90
16273;DHT22;8244;50.044;9.006;2022-11-12T08:29:21;6.20;99.90
16273;DHT22;8244;50.044;9.006;2022-11-12T08:34:23;6.30;99.90
16273;DHT22;8244;50.044;9.006;2022-11-12T08:39:25;6.30;99.90
16273;DHT22;8244;50.044;9.006;2022-11-12T08:44:28;6.30;99.90
16273;DHT22;8244;50.044;9.006;2022-11-12T08:49:29;6.40;99.90
16273;DHT22;8244;50.044;9.006;2022-11-12T08:54:31;6.40;99.90
16273;DHT22;8244;50.044;9.006;2022-11-12T08:59:34;6.50;99.90
16273;DHT22;8244;50.044;9.006;2022-11-12T09:04:36;6.50;99.90
16273;DHT22;8244;50.044;9.006;2022-11-12T09:09:37;6.50;99.90
16273;DHT22;8244;50.044;9.006;2022-11-12T09:14:40;6.50;99.90
16273;DHT22;8244;50.044;9.006;2022-11-12T09:19:42;6.60;99.90
16273;DHT22;8244;50.044;9.006;2022-11-12T09:24:43;6.60;99.90
16273;DHT22;8244;50.044;9.006;2022-11-12T09:29:46;6.60;99.90
16273;DHT22;8244;50.044;9.006;2022-11-12T09:34:48;6.80;99.90
16273;DHT22;8244;50.044;9.006;2022-11-12T09:39:50;7.00;99.90
16273;DHT22;8244;50.044;9.006;2022-11-12T09:44:56;7.10;99.90
16273;DHT22;8244;50.044;9.006;2022-11-12T09:50:04;7.30;99.90
16273;DHT22;8244;50.044;9.006;2022-11-12T09:55:16;7.50;99.90
16273;DHT22;8244;50.044;9.006;2022-11-12T10:00:20;7.70;99.90
16273;DHT22;8244;50.044;9.006;2022-11-12T10:05:28;7.90;99.90
16273;DHT22;8244;50.044;9.006;2022-11-12T10:10:40;8.00;99.90
16273;DHT22;8244;50.044;9.006;2022-11-12T10:15:51;8.20;99.90
16273;DHT22;8244;50.044;9.006;2022-11-12T10:21:18;8.30;99.90
16273;DHT22;8244;50.044;9.006;2022-11-12T10:26:25;8.40;99.90
16273;DHT22;8244;50.044;9.006;2022-11-12T10:31:28;8.50;99.90
16273;DHT22;8244;50.044;9.006;2022-11-12T10:36:32;8.60;99.90
16273;DHT22;8244;50.044;9.006;2022-11-12T10:41:34;8.70;99.90
16273;DHT22;8244;50.044;9.006;2022-11-12T10:46:38;8.80;99.90
16273;DHT22;8244;50.044;9.006;2022-11-12T10:51:39;8.80;99.90
16273;DHT22;8244;50.044;9.006;2022-11-12T10:56:41;8.90;99.90
16273;DHT22;8244;50.044;9.006;2022-11-12T11:01:45;8.90;99.90
16273;DHT22;8244;50.044;9.006;2022-11-12T11:06:47;9.00;99.90
16273;DHT22;8244;50.044;9.006;2022-11-12T11:11:51;9.10;99.90
16273;DHT22;8244;50.044;9.006;2022-11-12T11:16:58;9.10;99.90
16273;DHT22;8244;50.044;9.006;2022-11-12T11:22:26;9.20;99.90
16273;DHT22;8244;50.044;9.006;2022-11-12T11:27:32;9.10;99.90
16273;DHT22;8244;50.044;9.006;2022-11-12T11:32:54;9.20;99.90
16273;DHT22;8244;50.044;9.006;2022-11-12T11:38:19;9.20;99.90
16273;DHT22;8244;50.044;9.006;2022-11-12T11:43:39;9.30;99.90
16273;DHT22;8244;50.044;9.006;2022-11-12T11:49:00;9.30;99.90
16273;DHT22;8244;50.044;9.006;2022-11-12T11:54:13;9.40;99.90
16273;DHT22;8244;50.044;9.006;2022-11-12T11:59:26;9.50;99.90
16273;DHT22;8244;50.044;9.006;2022-11-12T12:04:43;9.60;99.90
16273;DHT22;8244;50.044;9.006;2022-11-12T12:09:50;9.70;99.90
16273;DHT22;8244;50.044;9.006;2022-11-12T12:15:03;9.70;99.90
16273;DHT22;8244;50.044;9.006;2022-11-12T12:20:16;9.80;99.90
16273;DHT22;8244;50.044;9.006;2022-11-12T12:25:23;9.60;99.90
16273;DHT22;8244;50.044;9.006;2022-11-12T12:30:28;9.60;99.90
16273;DHT22;8244;50.044;9.006;2022-11-12T12:35:35;9.60;99.90
16273;DHT22;8244;50.044;9.006;2022-11-12T12:40:44;9.70;99.90
16273;DHT22;8244;50.044;9.006;2022-11-12T12:45:47;9.90;99.90
16273;DHT22;8244;50.044;9.006;2022-11-12T12:50:50;10.00;99.90
16273;DHT22;8244;50.044;9.006;2022-11-12T12:55:54;10.10;99.90
16273;DHT22;8244;50.044;9.006;2022-11-12T13:01:02;10.10;99.90
16273;DHT22;8244;50.044;9.006;2022-11-12T13:06:07;10.20;99.90
16273;DHT22;8244;50.044;9.006;2022-11-12T13:11:49;10.20;99.90
16273;DHT22;8244;50.044;9.006;2022-11-12T13:17:10;10.20;99.90
16273;DHT22;8244;50.044;9.006;2022-11-12T13:22:48;10.20;99.90
16273;DHT22;8244;50.044;9.006;2022-11-12T13:28:07;10.20;99.90
16273;DHT22;8244;50.044;9.006;2022-11-12T13:33:22;10.20;99.90
16273;DHT22;8244;50.044;9.006;2022-11-12T13:38:26;10.10;99.90
16273;DHT22;8244;50.044;9.006;2022-11-12T13:43:34;10.10;99.90
16273;DHT22;8244;50.044;9.006;2022-11-12T13:48:39;10.10;99.90
16273;DHT22;8244;50.044;9.006;2022-11-12T13:53:43;10.20;99.90
16273;DHT22;8244;50.044;9.006;2022-11-12T13:58:44;10.20;99.90
16273;DHT22;8244;50.044;9.006;2022-11-12T14:03:48;10.20;99.90
16273;DHT22;8244;50.044;9.006;2022-11-12T14:09:00;10.20;99.90
16273;DHT22;8244;50.044;9.006;2022-11-12T14:14:13;10.10;99.90
16273;DHT22;8244;50.044;9.006;2022-11-12T14:19:25;10.10;99.90
16273;DHT22;8244;50.044;9.006;2022-11-12T14:24:32;9.90;99.90
16273;DHT22;8244;50.044;9.006;2022-11-12T14:29:34;9.90;99.90
16273;DHT22;8244;50.044;9.006;2022-11-12T14:34:36;9.80;99.90
16273;DHT22;8244;50.044;9.006;2022-11-12T14:39:39;9.70;99.90
16273;DHT22;8244;50.044;9.006;2022-11-12T14:44:42;9.60;99.90
16273;DHT22;8244;50.044;9.006;2022-11-12T14:49:46;9.60;99.90
16273;DHT22;8244;50.044;9.006;2022-11-12T14:54:51;9.60;99.90
16273;DHT22;8244;50.044;9.006;2022-11-12T14:59:55;9.30;99.90
16273;DHT22;8244;50.044;9.006;2022-11-12T15:04:59;9.20;99.90
16273;DHT22;8244;50.044;9.006;2022-11-12T15:10:32;9.20;99.90
16273;DHT22;8244;50.044;9.006;2022-11-12T15:15:36;9.10;99.90
16273;DHT22;8244;50.044;9.006;2022-11-12T15:20:39;9.00;99.90
16273;DHT22;8244;50.044;9.006;2022-11-12T15:25:44;9.00;99.90
16273;DHT22;8244;50.044;9.006;2022-11-12T15:30:59;8.90;99.90
16273;DHT22;8244;50.044;9.006;2022-11-12T15:36:01;8.80;99.90
16273;DHT22;8244;50.044;9.006;2022-11-12T15:41:04;8.70;99.90
16273;DHT22;8244;50.044;9.006;2022-11-12T15:46:10;8.50;99.90
16273;DHT22;8244;50.044;9.006;2022-11-12T15:51:14;8.50;99.90
16273;DHT22;8244;50.044;9.006;2022-11-12T15:56:18;8.30;99.90
16273;DHT22;8244;50.044;9.006;2022-11-12T16:01:21;8.30;99.90
16273;DHT22;8244;50.044;9.006;2022-11-12T16:06:23;8.20;99.90
16273;DHT22;8244;50.044;9.006;2022-11-12T16:11:26;8.10;99.90
16273;DHT22;8244;50.044;9.006;2022-11-12T16:16:37;8.00;99.90
16273;DHT22;8244;50.044;9.006;2022-11-12T16:21:39;7.90;99.90
16273;DHT22;8244;50.044;9.006;2022-11-12T16:26:42;7.80;99.90
16273;DHT22;8244;50.044;9.006;2022-11-12T16:31:44;7.80;99.90
16273;DHT22;8244;50.044;9.006;2022-11-12T16:36:46;7.80;99.90
16273;DHT22;8244;50.044;9.006;2022-11-12T16:41:49;7.80;99.90
16273;DHT22;8244;50.044;9.006;2022-11-12T16:46:51;7.80;99.90
16273;DHT22;8244;50.044;9.006;2022-11-12T16:51:53;7.70;99.90
16273;DHT22;8244;50.044;9.006;2022-11-12T16:56:56;7.70;99.90
16273;DHT22;8244;50.044;9.006;2022-11-12T17:01:57;7.70;99.90
16273;DHT22;8244;50.044;9.006;2022-11-12T17:07:01;7.50;99.90
16273;DHT22;8244;50.044;9.006;2022-11-12T17:12:07;7.40;99.90
16273;DHT22;8244;50.044;9.006;2022-11-12T17:17:08;7.40;99.90
16273;DHT22;8244;50.044;9.006;2022-11-12T17:22:10;7.30;99.90
16273;DHT22;8244;50.044;9.006;2022-11-12T17:27:13;7.40;99.90
16273;DHT22;8244;50.044;9.006;2022-11-12T17:32:15;7.40;99.90
16273;DHT22;8244;50.044;9.006;2022-11-12T17:37:17;7.30;99.90
16273;DHT22;8244;50.044;9.006;2022-11-12T17:42:20;7.30;99.90
16273;DHT22;8244;50.044;9.006;2022-11-12T17:47:22;7.30;99.90
16273;DHT22;8244;50.044;9.006;2022-11-12T17:52:23;7.30;99.90
16273;DHT22;8244;50.044;9.006;2022-11-12T17:57:26;7.20;99.90
16273;DHT22;8244;50.044;9.006;2022-11-12T18:02:28;7.20;99.90
16273;DHT22;8244;50.044;9.006;2022-11-12T18:07:29;7.20;99.90
16273;DHT22;8244;50.044;9.006;2022-11-12T18:12:33;7.20;99.90
16273;DHT22;8244;50.044;9.006;2022-11-12T18:17:35;7.20;99.90
16273;DHT22;8244;50.044;9.006;2022-11-12T18:22:37;7.20;99.90
16273;DHT22;8244;50.044;9.006;2022-11-12T18:27:40;7.20;99.90
16273;DHT22;8244;50.044;9.006;2022-11-12T18:32:42;7.10;99.90
16273;DHT22;8244;50.044;9.006;2022-11-12T18:37:43;7.10;99.90
16273;DHT22;8244;50.044;9.006;2022-11-12T18:42:46;7.10;99.90
16273;DHT22;8244;50.044;9.006;2022-11-12T18:47:48;7.10;99.90
16273;DHT22;8244;50.044;9.006;2022-11-12T18:52:50;7.10;99.90
16273;DHT22;8244;50.044;9.006;2022-11-12T18:57:53;7.10;99.90
16273;DHT22;8244;50.044;9.006;2022-11-12T19:02:54;7.10;99.90
16273;DHT22;8244;50.044;9.006;2022-11-12T19:07:56;7.00;99.90
16273;DHT22;8244;50.044;9.006;2022-11-12T19:12:59;7.00;99.90
16273;DHT22;8244;50.044;9.006;2022-11-12T19:18:03;7.00;99.90
16273;DHT22;8244;50.044;9.006;2022-11-12T19:23:05;6.90;99.90
16273;DHT22;8244;50.044;9.006;2022-11-12T19:28:08;6.90;99.90
16273;DHT22;8244;50.044;9.006;2022-11-12T19:33:09;6.90;99.90
16273;DHT22;8244;50.044;9.006;2022-11-12T19:38:11;6.90;99.90
16273;DHT22;8244;50.044;9.006;2022-11-12T19:43:14;6.80;99.90
16273;DHT22;8244;50.044;9.006;2022-11-12T19:48:16;6.80;99.90
16273;DHT22;8244;50.044;9.006;2022-11-12T19:53:18;6.80;99.90
16273;DHT22;8244;50.044;9.006;2022-11-12T19:58:21;6.80;99.90
16273;DHT22;8244;50.044;9.006;2022-11-12T20:03:22;6.80;99.90
16273;DHT22;8244;50.044;9.006;2022-11-12T20:08:25;6.80;99.90
16273;DHT22;8244;50.044;9.006;2022-11-12T20:13:29;6.70;99.90
16273;DHT22;8244;50.044;9.006;2022-11-12T20:18:30;6.70;99.90
16273;DHT22;8244;50.044;9.006;2022-11-12T20:23:32;6.70;99.90
16273;DHT22;8244;50.044;9.006;2022-11-12T20:28:37;6.60;99.90
16273;DHT22;8244;50.044;9.006;2022-11-12T20:33:39;6.50;99.90
16273;DHT22;8244;50.044;9.006;2022-11-12T20:38:42;6.40;99.90
16273;DHT22;8244;50.044;9.006;2022-11-12T20:43:46;6.40;99.90
16273;DHT22;8244;50.044;9.006;2022-11-12T20:48:47;6.30;99.90
16273;DHT22;8244;50.044;9.006;2022-11-12T20:53:49;6.30;99.90
16273;DHT22;8244;50.044;9.006;2022-11-12T20:58:53;6.30;99.90
16273;DHT22;8244;50.044;9.006;2022-11-12T21:03:56;6.20;99.90
16273;DHT22;8244;50.044;9.006;2022-11-12T21:08:58;6.20;99.90
16273;DHT22;8244;50.044;9.006;2022-11-12T21:14:01;6.20;99.90
16273;DHT22;8244;50.044;9.006;2022-11-12T21:19:03;6.20;99.90
16273;DHT22;8244;50.044;9.006;2022-11-12T21:24:06;6.10;99.90
16273;DHT22;8244;50.044;9.006;2022-11-12T21:29:09;6.10;99.90
16273;DHT22;8244;50.044;9.006;2022-11-12T21:34:11;6.10;99.90
16273;DHT22;8244;50.044;9.006;2022-11-12T21:39:13;6.10;99.90
16273;DHT22;8244;50.044;9.006;2022-11-12T21:44:16;6.10;99.90
16273;DHT22;8244;50.044;9.006;2022-11-12T21:49:18;6.10;99.90
16273;DHT22;8244;50.044;9.006;2022-11-12T21:54:19;6.10;99.90
16273;DHT22;8244;50.044;9.006;2022-11-12T21:59:22;6.10;99.90
16273;DHT22;8244;50.044;9.006;2022-11-12T22:04:24;6.10;99.90
16273;DHT22;8244;50.044;9.006;2022-11-12T22:09:26;6.00;99.90
16273;DHT22;8244;50.044;9.006;2022-11-12T22:14:29;5.90;99.90
16273;DHT22;8244;50.044;9.006;2022-11-12T22:19:31;5.80;99.90
16273;DHT22;8244;50.044;9.006;2022-11-12T22:24:33;5.80;99.90
16273;DHT22;8244;50.044;9.006;2022-11-12T22:29:36;5.80;99.90
16273;DHT22;8244;50.044;9.006;2022-11-12T22:34:38;5.80;99.90
16273;DHT22;8244;50.044;9.006;2022-11-12T22:39:40;5.80;99.90
16273;DHT22;8244;50.044;9.006;2022-11-12T22:44:42;5.70;99.90
16273;DHT22;8244;50.044;9.006;2022-11-12T22:49:44;5.70;99.90
16273;DHT22;8244;50.044;9.006;2022-11-12T22:54:46;5.80;99.90
16273;DHT22;8244;50.044;9.006;2022-11-12T22:59:49;5.80;99.90
16273;DHT22;8244;50.044;9.006;2022-11-12T23:04:51;5.80;99.90
16273;DHT22;8244;50.044;9.006;2022-11-12T23:09:52;5.90;99.90
16273;DHT22;8244;50.044;9.006;2022-11-12T23:14:55;5.90;99.90
16273;DHT22;8244;50.044;9.006;2022-11-12T23:19:57;5.90;99.90
16273;DHT22;8244;50.044;9.006;2022-11-12T23:24:59;5.80;99.90
16273;DHT22;8244;50.044;9.006;2022-11-12T23:30:02;5.90;99.90
16273;DHT22;8244;50.044;9.006;2022-11-12T23:35:04;5.90;99.90
16273;DHT22;8244;50.044;9.006;2022-11-12T23:40:07;5.90;99.90
16273;DHT22;8244;50.044;9.006;2022-11-12T23:45:11;6.00;99.90
16273;DHT22;8244;50.044;9.006;2022-11-12T23:50:12;6.00;99.90
16273;DHT22;8244;50.044;9.006;2022-11-12T23:55:14;6.00;99.90
